sensor_id;sensor_type;location;lat;lon;timestamp;P1;durP1;ratioP1;P2;durP2;ratioP2
19854;SDS011;10088;47.946;2.532;2022-10-04T00:01:08;23.50;;;7.63;;
19854;SDS011;10088;47.946;2.532;2022-10-04T00:03:42;50.30;;;8.43;;
19854;SDS011;10088;47.946;2.532;2022-10-04T00:06:22;53.87;;;9.33;;
19854;SDS011;10088;47.946;2.532;2022-10-04T00:08:55;88.97;;;11.47;;
19854;SDS011;10088;47.946;2.532;2022-10-04T00:11:25;52.10;;;9.10;;
19854;SDS011;10088;47.946;2.532;2022-10-04T00:13:52;133.50;;;15.27;;
19854;SDS011;10088;47.946;2.532;2022-10-04T00:16:29;207.13;;;24.47;;
19854;SDS011;10088;47.946;2.532;2022-10-04T00:18:59;115.87;;;20.43;;
19854;SDS011;10088;47.946;2.532;2022-10-04T00:21:24;104.67;;;17.13;;
19854;SDS011;10088;47.946;2.532;2022-10-04T00:24:18;123.83;;;16.57;;
19854;SDS011;10088;47.946;2.532;2022-10-04T00:29:22;356.83;;;45.87;;
19854;SDS011;10088;47.946;2.532;2022-10-04T00:32:38;149.67;;;19.23;;
19854;SDS011;10088;47.946;2.532;2022-10-04T00:37:15;19.63;;;11.13;;
19854;SDS011;10088;47.946;2.532;2022-10-04T00:39:41;34.37;;;14.03;;
19854;SDS011;10088;47.946;2.532;2022-10-04T00:47:25;52.67;;;21.57;;
19854;SDS011;10088;47.946;2.532;2022-10-04T00:49:59;99.40;;;30.77;;
19854;SDS011;10088;47.946;2.532;2022-10-04T00:52:30;118.27;;;21.07;;
19854;SDS011;10088;47.946;2.532;2022-10-04T00:54:57;73.87;;;14.77;;
19854;SDS011;10088;47.946;2.532;2022-10-04T00:57:44;105.17;;;15.40;;
19854;SDS011;10088;47.946;2.532;2022-10-04T01:00:16;127.33;;;15.90;;
19854;SDS011;10088;47.946;2.532;2022-10-04T01:05:09;51.60;;;11.33;;
19854;SDS011;10088;47.946;2.532;2022-10-04T01:07:45;100.37;;;14.33;;
19854;SDS011;10088;47.946;2.532;2022-10-04T01:10:17;93.33;;;14.37;;
19854;SDS011;10088;47.946;2.532;2022-10-04T01:12:45;23.93;;;9.20;;
19854;SDS011;10088;47.946;2.532;2022-10-04T01:15:25;24.83;;;9.67;;
19854;SDS011;10088;47.946;2.532;2022-10-04T01:20:37;10.13;;;8.23;;
19854;SDS011;10088;47.946;2.532;2022-10-04T01:23:03;9.97;;;7.87;;
19854;SDS011;10088;47.946;2.532;2022-10-04T01:25:46;16.17;;;9.07;;
19854;SDS011;10088;47.946;2.532;2022-10-04T01:28:11;17.57;;;9.27;;
19854;SDS011;10088;47.946;2.532;2022-10-04T01:30:36;10.23;;;7.67;;
19854;SDS011;10088;47.946;2.532;2022-10-04T01:33:02;16.23;;;8.73;;
19854;SDS011;10088;47.946;2.532;2022-10-04T01:35:27;18.37;;;9.13;;
19854;SDS011;10088;47.946;2.532;2022-10-04T01:37:53;25.00;;;9.33;;
19854;SDS011;10088;47.946;2.532;2022-10-04T01:40:19;15.10;;;8.27;;
19854;SDS011;10088;47.946;2.532;2022-10-04T01:42:52;16.87;;;8.37;;
19854;SDS011;10088;47.946;2.532;2022-10-04T01:45:25;10.13;;;8.07;;
19854;SDS011;10088;47.946;2.532;2022-10-04T01:47:58;11.57;;;8.73;;
19854;SDS011;10088;47.946;2.532;2022-10-04T01:50:33;13.00;;;8.73;;
19854;SDS011;10088;47.946;2.532;2022-10-04T01:55:37;13.83;;;8.63;;
19854;SDS011;10088;47.946;2.532;2022-10-04T01:58:16;15.90;;;8.90;;
19854;SDS011;10088;47.946;2.532;2022-10-04T02:00:44;46.87;;;13.07;;
19854;SDS011;10088;47.946;2.532;2022-10-04T02:03:33;24.60;;;10.80;;
19854;SDS011;10088;47.946;2.532;2022-10-04T02:05:58;37.23;;;11.03;;
19854;SDS011;10088;47.946;2.532;2022-10-04T02:08:25;45.00;;;13.47;;
19854;SDS011;10088;47.946;2.532;2022-10-04T02:10:51;30.10;;;11.27;;
19854;SDS011;10088;47.946;2.532;2022-10-04T02:13:19;118.53;;;16.57;;
19854;SDS011;10088;47.946;2.532;2022-10-04T02:15:45;72.93;;;12.60;;
19854;SDS011;10088;47.946;2.532;2022-10-04T02:18:13;72.37;;;12.60;;
19854;SDS011;10088;47.946;2.532;2022-10-04T02:20:39;75.07;;;13.60;;
19854;SDS011;10088;47.946;2.532;2022-10-04T02:23:05;19.20;;;10.20;;
19854;SDS011;10088;47.946;2.532;2022-10-04T02:25:31;13.17;;;8.93;;
19854;SDS011;10088;47.946;2.532;2022-10-04T02:27:56;31.83;;;9.67;;
19854;SDS011;10088;47.946;2.532;2022-10-04T02:30:22;41.33;;;10.27;;
19854;SDS011;10088;47.946;2.532;2022-10-04T02:32:50;102.73;;;14.13;;
19854;SDS011;10088;47.946;2.532;2022-10-04T02:35:29;64.10;;;11.20;;
19854;SDS011;10088;47.946;2.532;2022-10-04T02:40:40;34.97;;;9.87;;
19854;SDS011;10088;47.946;2.532;2022-10-04T02:43:10;47.30;;;9.93;;
19854;SDS011;10088;47.946;2.532;2022-10-04T02:48:21;38.77;;;11.33;;
19854;SDS011;10088;47.946;2.532;2022-10-04T02:50:49;37.07;;;11.20;;
19854;SDS011;10088;47.946;2.532;2022-10-04T02:53:18;58.83;;;12.33;;
19854;SDS011;10088;47.946;2.532;2022-10-04T02:55:46;47.20;;;12.07;;
19854;SDS011;10088;47.946;2.532;2022-10-04T02:58:13;58.07;;;12.10;;
19854;SDS011;10088;47.946;2.532;2022-10-04T03:00:55;72.43;;;13.57;;
19854;SDS011;10088;47.946;2.532;2022-10-04T03:06:27;84.67;;;14.40;;
19854;SDS011;10088;47.946;2.532;2022-10-04T03:11:09;74.13;;;15.87;;
19854;SDS011;10088;47.946;2.532;2022-10-04T03:13:39;53.23;;;11.93;;
19854;SDS011;10088;47.946;2.532;2022-10-04T03:16:06;95.23;;;14.07;;
19854;SDS011;10088;47.946;2.532;2022-10-04T03:18:33;47.43;;;11.30;;
19854;SDS011;10088;47.946;2.532;2022-10-04T03:21:02;39.00;;;11.20;;
19854;SDS011;10088;47.946;2.532;2022-10-04T03:23:29;39.73;;;10.53;;
19854;SDS011;10088;47.946;2.532;2022-10-04T03:26:00;69.50;;;12.53;;
19854;SDS011;10088;47.946;2.532;2022-10-04T03:28:27;81.33;;;13.93;;
19854;SDS011;10088;47.946;2.532;2022-10-04T03:30:53;70.93;;;13.27;;
19854;SDS011;10088;47.946;2.532;2022-10-04T03:33:19;61.93;;;11.30;;
19854;SDS011;10088;47.946;2.532;2022-10-04T03:35:47;95.40;;;12.13;;
19854;SDS011;10088;47.946;2.532;2022-10-04T03:38:14;76.87;;;11.70;;
19854;SDS011;10088;47.946;2.532;2022-10-04T03:40:41;36.80;;;9.47;;
19854;SDS011;10088;47.946;2.532;2022-10-04T03:43:07;32.77;;;9.93;;
19854;SDS011;10088;47.946;2.532;2022-10-04T03:45:36;13.93;;;8.27;;
19854;SDS011;10088;47.946;2.532;2022-10-04T03:48:04;14.87;;;8.43;;
19854;SDS011;10088;47.946;2.532;2022-10-04T03:50:34;20.03;;;9.53;;
19854;SDS011;10088;47.946;2.532;2022-10-04T03:53:04;28.17;;;8.97;;
19854;SDS011;10088;47.946;2.532;2022-10-04T03:55:32;25.73;;;9.37;;
19854;SDS011;10088;47.946;2.532;2022-10-04T03:57:58;87.57;;;11.87;;
19854;SDS011;10088;47.946;2.532;2022-10-04T04:00:23;37.27;;;8.33;;
19854;SDS011;10088;47.946;2.532;2022-10-04T04:02:49;27.17;;;8.20;;
19854;SDS011;10088;47.946;2.532;2022-10-04T04:05:21;33.40;;;9.73;;
19854;SDS011;10088;47.946;2.532;2022-10-04T04:10:20;38.10;;;7.63;;
19854;SDS011;10088;47.946;2.532;2022-10-04T04:15:13;51.73;;;9.80;;
19854;SDS011;10088;47.946;2.532;2022-10-04T04:17:40;105.73;;;11.23;;
19854;SDS011;10088;47.946;2.532;2022-10-04T04:20:27;38.33;;;9.03;;
19854;SDS011;10088;47.946;2.532;2022-10-04T04:22:55;35.03;;;9.57;;
19854;SDS011;10088;47.946;2.532;2022-10-04T04:25:23;65.73;;;9.27;;
19854;SDS011;10088;47.946;2.532;2022-10-04T04:27:49;81.27;;;9.93;;
19854;SDS011;10088;47.946;2.532;2022-10-04T04:30:16;90.40;;;11.70;;
19854;SDS011;10088;47.946;2.532;2022-10-04T04:32:44;116.97;;;10.97;;
19854;SDS011;10088;47.946;2.532;2022-10-04T04:35:21;66.67;;;9.60;;
19854;SDS011;10088;47.946;2.532;2022-10-04T04:38:00;128.53;;;10.83;;
19854;SDS011;10088;47.946;2.532;2022-10-04T04:40:26;189.07;;;16.03;;
19854;SDS011;10088;47.946;2.532;2022-10-04T04:42:51;108.97;;;10.67;;
19854;SDS011;10088;47.946;2.532;2022-10-04T04:45:21;114.87;;;12.17;;
19854;SDS011;10088;47.946;2.532;2022-10-04T04:47:52;147.87;;;12.93;;
19854;SDS011;10088;47.946;2.532;2022-10-04T04:50:21;103.90;;;10.57;;
19854;SDS011;10088;47.946;2.532;2022-10-04T04:52:51;117.10;;;12.27;;
19854;SDS011;10088;47.946;2.532;2022-10-04T04:55:22;113.67;;;12.67;;
19854;SDS011;10088;47.946;2.532;2022-10-04T04:57:48;133.47;;;13.10;;
19854;SDS011;10088;47.946;2.532;2022-10-04T05:00:19;107.73;;;13.23;;
19854;SDS011;10088;47.946;2.532;2022-10-04T05:02:49;64.53;;;13.90;;
19854;SDS011;10088;47.946;2.532;2022-10-04T05:05:16;80.50;;;12.77;;
19854;SDS011;10088;47.946;2.532;2022-10-04T05:07:41;135.10;;;20.77;;
19854;SDS011;10088;47.946;2.532;2022-10-04T05:12:50;132.93;;;18.53;;
19854;SDS011;10088;47.946;2.532;2022-10-04T05:15:16;61.53;;;9.60;;
19854;SDS011;10088;47.946;2.532;2022-10-04T05:17:41;50.23;;;7.27;;
19854;SDS011;10088;47.946;2.532;2022-10-04T05:20:06;55.63;;;8.03;;
19854;SDS011;10088;47.946;2.532;2022-10-04T05:22:35;57.00;;;7.97;;
19854;SDS011;10088;47.946;2.532;2022-10-04T05:25:02;95.87;;;9.83;;
19854;SDS011;10088;47.946;2.532;2022-10-04T05:35:21;49.60;;;10.03;;
19854;SDS011;10088;47.946;2.532;2022-10-04T05:38:03;72.30;;;12.37;;
19854;SDS011;10088;47.946;2.532;2022-10-04T05:40:38;60.70;;;13.43;;
19854;SDS011;10088;47.946;2.532;2022-10-04T05:43:49;44.03;;;8.83;;
19854;SDS011;10088;47.946;2.532;2022-10-04T05:48:40;41.53;;;7.23;;
19854;SDS011;10088;47.946;2.532;2022-10-04T05:54:07;30.87;;;5.37;;
19854;SDS011;10088;47.946;2.532;2022-10-04T05:56:41;51.27;;;7.87;;
19854;SDS011;10088;47.946;2.532;2022-10-04T06:01:56;45.83;;;8.77;;
19854;SDS011;10088;47.946;2.532;2022-10-04T06:06:53;37.30;;;6.20;;
19854;SDS011;10088;47.946;2.532;2022-10-04T06:14:37;34.27;;;5.93;;
19854;SDS011;10088;47.946;2.532;2022-10-04T06:22:31;26.50;;;6.87;;
19854;SDS011;10088;47.946;2.532;2022-10-04T06:25:08;48.07;;;7.60;;
19854;SDS011;10088;47.946;2.532;2022-10-04T06:30:16;63.60;;;7.23;;
19854;SDS011;10088;47.946;2.532;2022-10-04T06:46:02;40.37;;;7.63;;
19854;SDS011;10088;47.946;2.532;2022-10-04T06:48:39;104.37;;;23.53;;
19854;SDS011;10088;47.946;2.532;2022-10-04T07:01:47;48.50;;;8.33;;
19854;SDS011;10088;47.946;2.532;2022-10-04T07:04:20;69.20;;;10.63;;
19854;SDS011;10088;47.946;2.532;2022-10-04T07:06:49;40.53;;;10.90;;
19854;SDS011;10088;47.946;2.532;2022-10-04T07:09:22;71.17;;;9.30;;
19854;SDS011;10088;47.946;2.532;2022-10-04T07:11:49;60.67;;;10.20;;
19854;SDS011;10088;47.946;2.532;2022-10-04T07:14:22;43.13;;;7.07;;
19854;SDS011;10088;47.946;2.532;2022-10-04T07:24:43;32.53;;;7.13;;
19854;SDS011;10088;47.946;2.532;2022-10-04T07:27:12;47.07;;;8.23;;
19854;SDS011;10088;47.946;2.532;2022-10-04T07:29:40;66.27;;;8.90;;
19854;SDS011;10088;47.946;2.532;2022-10-04T07:32:27;42.67;;;6.87;;
19854;SDS011;10088;47.946;2.532;2022-10-04T07:37:24;73.43;;;10.77;;
19854;SDS011;10088;47.946;2.532;2022-10-04T07:39:57;53.37;;;9.23;;
19854;SDS011;10088;47.946;2.532;2022-10-04T07:42:28;103.87;;;10.67;;
19854;SDS011;10088;47.946;2.532;2022-10-04T07:47:21;21.90;;;6.40;;
19854;SDS011;10088;47.946;2.532;2022-10-04T07:49:49;38.60;;;6.53;;
19854;SDS011;10088;47.946;2.532;2022-10-04T07:55:19;39.60;;;6.07;;
19854;SDS011;10088;47.946;2.532;2022-10-04T08:00:11;33.03;;;7.10;;
19854;SDS011;10088;47.946;2.532;2022-10-04T08:05:15;45.00;;;7.90;;
19854;SDS011;10088;47.946;2.532;2022-10-04T08:07:51;77.63;;;7.70;;
19854;SDS011;10088;47.946;2.532;2022-10-04T08:12:53;46.87;;;4.70;;
19854;SDS011;10088;47.946;2.532;2022-10-04T08:15:29;123.90;;;9.73;;
19854;SDS011;10088;47.946;2.532;2022-10-04T08:20:37;117.17;;;9.37;;
19854;SDS011;10088;47.946;2.532;2022-10-04T08:23:18;133.07;;;12.60;;
19854;SDS011;10088;47.946;2.532;2022-10-04T08:28:29;102.20;;;9.30;;
19854;SDS011;10088;47.946;2.532;2022-10-04T08:31:23;26.67;;;6.23;;
19854;SDS011;10088;47.946;2.532;2022-10-04T08:36:27;9.47;;;5.70;;
19854;SDS011;10088;47.946;2.532;2022-10-04T08:38:56;6.27;;;5.67;;
19854;SDS011;10088;47.946;2.532;2022-10-04T08:52:10;5.40;;;4.90;;
19854;SDS011;10088;47.946;2.532;2022-10-04T08:54:43;6.27;;;4.47;;
19854;SDS011;10088;47.946;2.532;2022-10-04T09:02:30;4.37;;;3.97;;
19854;SDS011;10088;47.946;2.532;2022-10-04T09:05:17;4.17;;;3.70;;
19854;SDS011;10088;47.946;2.532;2022-10-04T09:13:04;4.17;;;3.60;;
19854;SDS011;10088;47.946;2.532;2022-10-04T09:21:06;5.93;;;3.23;;
19854;SDS011;10088;47.946;2.532;2022-10-04T09:23:51;6.63;;;3.03;;
19854;SDS011;10088;47.946;2.532;2022-10-04T09:38:48;5.83;;;2.97;;
19854;SDS011;10088;47.946;2.532;2022-10-04T09:41:30;3.47;;;3.17;;
19854;SDS011;10088;47.946;2.532;2022-10-04T09:49:10;5.17;;;3.10;;
19854;SDS011;10088;47.946;2.532;2022-10-04T10:20:33;3.07;;;2.73;;
19854;SDS011;10088;47.946;2.532;2022-10-04T10:25:59;3.40;;;2.70;;
19854;SDS011;10088;47.946;2.532;2022-10-04T10:31:26;4.33;;;3.07;;
19854;SDS011;10088;47.946;2.532;2022-10-04T10:36:55;3.47;;;3.17;;
19854;SDS011;10088;47.946;2.532;2022-10-04T10:42:25;2.97;;;2.67;;
19854;SDS011;10088;47.946;2.532;2022-10-04T10:50:27;4.03;;;2.70;;
19854;SDS011;10088;47.946;2.532;2022-10-04T10:53:18;4.07;;;2.67;;
19854;SDS011;10088;47.946;2.532;2022-10-04T10:56:00;4.90;;;2.93;;
19854;SDS011;10088;47.946;2.532;2022-10-04T11:09:29;1.93;;;1.83;;
19854;SDS011;10088;47.946;2.532;2022-10-04T11:18:02;2.63;;;1.90;;
19854;SDS011;10088;47.946;2.532;2022-10-04T11:20:55;3.20;;;2.17;;
19854;SDS011;10088;47.946;2.532;2022-10-04T11:31:27;3.23;;;1.80;;
19854;SDS011;10088;47.946;2.532;2022-10-04T11:46:47;1.93;;;1.20;;
19854;SDS011;10088;47.946;2.532;2022-10-04T11:59:44;3.50;;;1.83;;
19854;SDS011;10088;47.946;2.532;2022-10-04T12:10:35;2.53;;;1.40;;
19854;SDS011;10088;47.946;2.532;2022-10-04T12:15:31;2.00;;;1.10;;
19854;SDS011;10088;47.946;2.532;2022-10-04T13:02:17;2.10;;;0.90;;
19854;SDS011;10088;47.946;2.532;2022-10-04T13:12:18;1.90;;;0.70;;
19854;SDS011;10088;47.946;2.532;2022-10-04T13:30:28;2.13;;;0.80;;
19854;SDS011;10088;47.946;2.532;2022-10-04T13:35:31;5.47;;;0.90;;
19854;SDS011;10088;47.946;2.532;2022-10-04T13:38:09;3.00;;;0.77;;
19854;SDS011;10088;47.946;2.532;2022-10-04T13:43:22;3.10;;;1.17;;
19854;SDS011;10088;47.946;2.532;2022-10-04T13:56:49;0.90;;;0.70;;
19854;SDS011;10088;47.946;2.532;2022-10-04T14:09:56;1.90;;;0.50;;
19854;SDS011;10088;47.946;2.532;2022-10-04T14:46:37;2.43;;;0.80;;
19854;SDS011;10088;47.946;2.532;2022-10-04T14:49:11;3.33;;;0.87;;
19854;SDS011;10088;47.946;2.532;2022-10-04T14:51:51;2.93;;;0.80;;
19854;SDS011;10088;47.946;2.532;2022-10-04T14:57:08;4.67;;;0.83;;
19854;SDS011;10088;47.946;2.532;2022-10-04T15:17:25;1.60;;;0.90;;
19854;SDS011;10088;47.946;2.532;2022-10-04T15:22:21;1.23;;;0.70;;
19854;SDS011;10088;47.946;2.532;2022-10-04T15:24:48;1.33;;;1.00;;
19854;SDS011;10088;47.946;2.532;2022-10-04T15:34:58;2.40;;;0.80;;
19854;SDS011;10088;47.946;2.532;2022-10-04T15:40:17;2.70;;;1.03;;
19854;SDS011;10088;47.946;2.532;2022-10-04T15:42:58;1.73;;;1.13;;
19854;SDS011;10088;47.946;2.532;2022-10-04T15:48:23;1.67;;;0.90;;
19854;SDS011;10088;47.946;2.532;2022-10-04T15:50:57;1.67;;;0.93;;
19854;SDS011;10088;47.946;2.532;2022-10-04T16:01:23;1.67;;;1.23;;
19854;SDS011;10088;47.946;2.532;2022-10-04T16:15:00;2.27;;;1.20;;
19854;SDS011;10088;47.946;2.532;2022-10-04T16:26:10;3.03;;;1.03;;
19854;SDS011;10088;47.946;2.532;2022-10-04T16:31:24;2.27;;;0.90;;
19854;SDS011;10088;47.946;2.532;2022-10-04T16:39:32;2.07;;;1.00;;
19854;SDS011;10088;47.946;2.532;2022-10-04T16:42:30;3.07;;;1.17;;
19854;SDS011;10088;47.946;2.532;2022-10-04T16:48:36;2.63;;;0.80;;
19854;SDS011;10088;47.946;2.532;2022-10-04T16:59:59;4.00;;;0.90;;
19854;SDS011;10088;47.946;2.532;2022-10-04T17:13:58;1.23;;;1.10;;
19854;SDS011;10088;47.946;2.532;2022-10-04T17:16:46;2.17;;;1.30;;
19854;SDS011;10088;47.946;2.532;2022-10-04T17:19:29;5.13;;;1.87;;
19854;SDS011;10088;47.946;2.532;2022-10-04T17:27:42;3.07;;;2.77;;
19854;SDS011;10088;47.946;2.532;2022-10-04T17:52:31;1.60;;;1.50;;
19854;SDS011;10088;47.946;2.532;2022-10-04T17:55:17;3.20;;;1.80;;
19854;SDS011;10088;47.946;2.532;2022-10-04T17:57:58;5.57;;;1.60;;
19854;SDS011;10088;47.946;2.532;2022-10-04T18:00:26;3.80;;;1.73;;
19854;SDS011;10088;47.946;2.532;2022-10-04T18:06:25;3.40;;;1.80;;
19854;SDS011;10088;47.946;2.532;2022-10-04T18:08:54;3.07;;;2.77;;
19854;SDS011;10088;47.946;2.532;2022-10-04T18:11:23;4.23;;;2.30;;
19854;SDS011;10088;47.946;2.532;2022-10-04T18:13:58;4.53;;;2.20;;
19854;SDS011;10088;47.946;2.532;2022-10-04T18:17:20;3.70;;;2.00;;
19854;SDS011;10088;47.946;2.532;2022-10-04T18:24:41;3.47;;;2.73;;
19854;SDS011;10088;47.946;2.532;2022-10-04T18:27:20;3.33;;;2.70;;
19854;SDS011;10088;47.946;2.532;2022-10-04T18:32:31;4.33;;;2.40;;
19854;SDS011;10088;47.946;2.532;2022-10-04T18:35:35;5.20;;;1.73;;
19854;SDS011;10088;47.946;2.532;2022-10-04T18:40:32;5.33;;;1.83;;
19854;SDS011;10088;47.946;2.532;2022-10-04T18:43:07;2.00;;;1.80;;
19854;SDS011;10088;47.946;2.532;2022-10-04T18:45:37;6.80;;;2.03;;
19854;SDS011;10088;47.946;2.532;2022-10-04T18:48:18;3.87;;;1.80;;
19854;SDS011;10088;47.946;2.532;2022-10-04T19:03:27;4.23;;;2.17;;
19854;SDS011;10088;47.946;2.532;2022-10-04T19:11:03;6.10;;;4.17;;
19854;SDS011;10088;47.946;2.532;2022-10-04T19:16:10;7.27;;;3.47;;
19854;SDS011;10088;47.946;2.532;2022-10-04T19:18:49;4.60;;;4.20;;
19854;SDS011;10088;47.946;2.532;2022-10-04T19:21:41;6.27;;;4.87;;
19854;SDS011;10088;47.946;2.532;2022-10-04T19:24:38;10.23;;;4.40;;
19854;SDS011;10088;47.946;2.532;2022-10-04T19:27:42;6.17;;;3.83;;
19854;SDS011;10088;47.946;2.532;2022-10-04T19:30:21;7.43;;;4.50;;
19854;SDS011;10088;47.946;2.532;2022-10-04T19:38:26;5.33;;;4.53;;
19854;SDS011;10088;47.946;2.532;2022-10-04T19:49:43;12.27;;;6.47;;
19854;SDS011;10088;47.946;2.532;2022-10-04T19:52:25;11.97;;;4.77;;
19854;SDS011;10088;47.946;2.532;2022-10-04T19:58:07;6.00;;;3.90;;
19854;SDS011;10088;47.946;2.532;2022-10-04T20:00:53;4.27;;;3.60;;
19854;SDS011;10088;47.946;2.532;2022-10-04T20:03:30;4.10;;;2.90;;
19854;SDS011;10088;47.946;2.532;2022-10-04T20:06:20;6.37;;;4.00;;
19854;SDS011;10088;47.946;2.532;2022-10-04T20:08:55;7.10;;;3.40;;
19854;SDS011;10088;47.946;2.532;2022-10-04T20:11:49;4.13;;;2.80;;
19854;SDS011;10088;47.946;2.532;2022-10-04T20:19:40;4.27;;;2.43;;
19854;SDS011;10088;47.946;2.532;2022-10-04T20:27:01;5.27;;;3.30;;
19854;SDS011;10088;47.946;2.532;2022-10-04T20:32:01;4.13;;;3.00;;
19854;SDS011;10088;47.946;2.532;2022-10-04T20:36:56;5.00;;;2.47;;
19854;SDS011;10088;47.946;2.532;2022-10-04T20:44:51;2.97;;;2.03;;
19854;SDS011;10088;47.946;2.532;2022-10-04T20:49:51;3.63;;;2.40;;
19854;SDS011;10088;47.946;2.532;2022-10-04T20:52:17;5.47;;;2.13;;
19854;SDS011;10088;47.946;2.532;2022-10-04T20:54:50;6.37;;;3.30;;
19854;SDS011;10088;47.946;2.532;2022-10-04T20:57:19;4.73;;;2.43;;
19854;SDS011;10088;47.946;2.532;2022-10-04T20:59:47;4.87;;;2.73;;
19854;SDS011;10088;47.946;2.532;2022-10-04T21:02:14;6.83;;;3.83;;
19854;SDS011;10088;47.946;2.532;2022-10-04T21:04:40;6.20;;;3.73;;
19854;SDS011;10088;47.946;2.532;2022-10-04T21:07:06;8.13;;;5.40;;
19854;SDS011;10088;47.946;2.532;2022-10-04T21:09:32;6.67;;;4.17;;
19854;SDS011;10088;47.946;2.532;2022-10-04T21:11:58;6.70;;;4.60;;
19854;SDS011;10088;47.946;2.532;2022-10-04T21:16:49;8.47;;;5.33;;
19854;SDS011;10088;47.946;2.532;2022-10-04T21:21:57;10.80;;;5.73;;
19854;SDS011;10088;47.946;2.532;2022-10-04T21:24:26;7.60;;;6.50;;
19854;SDS011;10088;47.946;2.532;2022-10-04T21:26:55;10.27;;;6.00;;
19854;SDS011;10088;47.946;2.532;2022-10-04T21:29:21;6.20;;;5.60;;
19854;SDS011;10088;47.946;2.532;2022-10-04T21:31:46;6.97;;;5.17;;
19854;SDS011;10088;47.946;2.532;2022-10-04T21:34:12;8.80;;;5.93;;
19854;SDS011;10088;47.946;2.532;2022-10-04T21:36:37;8.10;;;7.27;;
19854;SDS011;10088;47.946;2.532;2022-10-04T21:39:02;9.37;;;4.90;;
19854;SDS011;10088;47.946;2.532;2022-10-04T21:41:28;12.03;;;5.90;;
19854;SDS011;10088;47.946;2.532;2022-10-04T21:43:53;7.20;;;5.57;;
19854;SDS011;10088;47.946;2.532;2022-10-04T21:46:18;8.53;;;5.40;;
19854;SDS011;10088;47.946;2.532;2022-10-04T21:48:43;7.97;;;5.27;;
19854;SDS011;10088;47.946;2.532;2022-10-04T21:51:09;12.40;;;5.13;;
19854;SDS011;10088;47.946;2.532;2022-10-04T21:53:34;9.30;;;4.20;;
19854;SDS011;10088;47.946;2.532;2022-10-04T21:55:59;7.10;;;4.63;;
19854;SDS011;10088;47.946;2.532;2022-10-04T21:58:24;7.57;;;4.83;;
19854;SDS011;10088;47.946;2.532;2022-10-04T22:00:50;6.13;;;4.83;;
19854;SDS011;10088;47.946;2.532;2022-10-04T22:03:15;13.87;;;5.00;;
19854;SDS011;10088;47.946;2.532;2022-10-04T22:05:40;6.30;;;3.30;;
19854;SDS011;10088;47.946;2.532;2022-10-04T22:08:06;7.20;;;4.30;;
19854;SDS011;10088;47.946;2.532;2022-10-04T22:10:32;7.77;;;4.60;;
19854;SDS011;10088;47.946;2.532;2022-10-04T22:12:57;10.37;;;4.43;;
19854;SDS011;10088;47.946;2.532;2022-10-04T22:15:23;10.50;;;4.20;;
19854;SDS011;10088;47.946;2.532;2022-10-04T22:17:49;8.70;;;4.90;;
19854;SDS011;10088;47.946;2.532;2022-10-04T22:20:14;5.67;;;4.30;;
19854;SDS011;10088;47.946;2.532;2022-10-04T22:22:39;7.07;;;4.63;;
19854;SDS011;10088;47.946;2.532;2022-10-04T22:25:15;6.37;;;5.60;;
19854;SDS011;10088;47.946;2.532;2022-10-04T22:27:41;5.77;;;4.60;;
19854;SDS011;10088;47.946;2.532;2022-10-04T22:30:09;10.27;;;4.10;;
19854;SDS011;10088;47.946;2.532;2022-10-04T22:32:36;5.90;;;4.87;;
19854;SDS011;10088;47.946;2.532;2022-10-04T22:35:09;6.07;;;4.73;;
19854;SDS011;10088;47.946;2.532;2022-10-04T22:37:36;7.70;;;4.53;;
19854;SDS011;10088;47.946;2.532;2022-10-04T22:40:01;5.77;;;5.17;;
19854;SDS011;10088;47.946;2.532;2022-10-04T22:42:27;8.40;;;5.00;;
19854;SDS011;10088;47.946;2.532;2022-10-04T22:44:53;6.13;;;4.60;;
19854;SDS011;10088;47.946;2.532;2022-10-04T22:47:19;6.53;;;5.03;;
19854;SDS011;10088;47.946;2.532;2022-10-04T22:49:45;6.60;;;4.23;;
19854;SDS011;10088;47.946;2.532;2022-10-04T22:52:13;5.20;;;4.30;;
19854;SDS011;10088;47.946;2.532;2022-10-04T22:54:39;6.60;;;4.47;;
19854;SDS011;10088;47.946;2.532;2022-10-04T22:57:07;5.07;;;4.67;;
19854;SDS011;10088;47.946;2.532;2022-10-04T22:59:34;5.10;;;4.60;;
19854;SDS011;10088;47.946;2.532;2022-10-04T23:02:04;7.23;;;4.20;;
19854;SDS011;10088;47.946;2.532;2022-10-04T23:04:30;6.90;;;4.30;;
19854;SDS011;10088;47.946;2.532;2022-10-04T23:06:55;6.43;;;4.20;;
19854;SDS011;10088;47.946;2.532;2022-10-04T23:09:21;6.03;;;3.80;;
19854;SDS011;10088;47.946;2.532;2022-10-04T23:11:46;10.67;;;3.67;;
19854;SDS011;10088;47.946;2.532;2022-10-04T23:14:11;4.83;;;3.90;;
19854;SDS011;10088;47.946;2.532;2022-10-04T23:16:37;11.17;;;4.17;;
19854;SDS011;10088;47.946;2.532;2022-10-04T23:19:13;6.73;;;3.80;;
19854;SDS011;10088;47.946;2.532;2022-10-04T23:21:40;4.60;;;3.70;;
19854;SDS011;10088;47.946;2.532;2022-10-04T23:26:42;4.20;;;3.80;;
19854;SDS011;10088;47.946;2.532;2022-10-04T23:29:20;4.23;;;3.83;;
19854;SDS011;10088;47.946;2.532;2022-10-04T23:31:46;5.40;;;4.00;;
19854;SDS011;10088;47.946;2.532;2022-10-04T23:34:15;11.13;;;4.03;;
19854;SDS011;10088;47.946;2.532;2022-10-04T23:36:41;6.40;;;4.07;;
19854;SDS011;10088;47.946;2.532;2022-10-04T23:39:08;5.87;;;3.40;;
19854;SDS011;10088;47.946;2.532;2022-10-04T23:41:34;6.73;;;4.10;;
19854;SDS011;10088;47.946;2.532;2022-10-04T23:44:00;8.33;;;3.93;;
19854;SDS011;10088;47.946;2.532;2022-10-04T23:46:25;6.93;;;3.93;;
19854;SDS011;10088;47.946;2.532;2022-10-04T23:48:50;4.27;;;3.83;;
19854;SDS011;10088;47.946;2.532;2022-10-04T23:51:17;5.57;;;4.03;;
19854;SDS011;10088;47.946;2.532;2022-10-04T23:53:43;5.20;;;3.83;;
19854;SDS011;10088;47.946;2.532;2022-10-04T23:56:31;7.33;;;3.60;;
19854;SDS011;10088;47.946;2.532;2022-10-04T23:58:56;6.67;;;3.70;;
